sensor_id;sensor_type;location;lat;lon;timestamp;pressure;altitude;pressure_sealevel;temperature;humidity
79198;BME280;68628;48.714;9.472;2023-05-10T00:01:07;97417.25;;;14.40;84.61
79198;BME280;68628;48.714;9.472;2023-05-10T00:03:33;97414.44;;;14.35;84.94
79198;BME280;68628;48.714;9.472;2023-05-10T00:05:58;97406.25;;;14.37;85.58
79198;BME280;68628;48.714;9.472;2023-05-10T00:08:24;97419.47;;;14.18;85.80
79198;BME280;68628;48.714;9.472;2023-05-10T00:10:50;97414.91;;;14.07;86.13
79198;BME280;68628;48.714;9.472;2023-05-10T00:13:15;97414.00;;;14.20;86.88
79198;BME280;68628;48.714;9.472;2023-05-10T00:15:41;97414.56;;;14.22;86.13
79198;BME280;68628;48.714;9.472;2023-05-10T00:18:07;97413.78;;;14.21;86.49
79198;BME280;68628;48.714;9.472;2023-05-10T00:20:32;97414.56;;;14.22;86.71
79198;BME280;68628;48.714;9.472;2023-05-10T00:22:58;97410.09;;;14.22;86.92
79198;BME280;68628;48.714;9.472;2023-05-10T00:25:24;97411.69;;;14.23;85.95
79198;BME280;68628;48.714;9.472;2023-05-10T00:27:49;97415.81;;;14.19;86.74
79198;BME280;68628;48.714;9.472;2023-05-10T00:30:15;97414.78;;;14.20;86.99
79198;BME280;68628;48.714;9.472;2023-05-10T00:32:41;97411.97;;;14.15;86.48
79198;BME280;68628;48.714;9.472;2023-05-10T00:35:07;97411.81;;;14.10;87.03
79198;BME280;68628;48.714;9.472;2023-05-10T00:37:33;97414.13;;;14.25;86.96
79198;BME280;68628;48.714;9.472;2023-05-10T00:39:59;97412.22;;;14.32;86.66
79198;BME280;68628;48.714;9.472;2023-05-10T00:42:24;97424.25;;;14.35;85.98
79198;BME280;68628;48.714;9.472;2023-05-10T00:44:50;97419.81;;;14.28;86.58
79198;BME280;68628;48.714;9.472;2023-05-10T00:47:16;97422.44;;;14.28;85.99
79198;BME280;68628;48.714;9.472;2023-05-10T00:49:43;97424.88;;;14.30;85.77
79198;BME280;68628;48.714;9.472;2023-05-10T00:52:09;97425.94;;;14.29;85.29
79198;BME280;68628;48.714;9.472;2023-05-10T00:54:36;97426.94;;;14.28;85.04
79198;BME280;68628;48.714;9.472;2023-05-10T00:57:02;97426.31;;;14.07;84.88
79198;BME280;68628;48.714;9.472;2023-05-10T00:59:29;97436.03;;;14.13;84.67
79198;BME280;68628;48.714;9.472;2023-05-10T01:01:55;97436.56;;;13.97;84.38
79198;BME280;68628;48.714;9.472;2023-05-10T01:04:20;97434.41;;;13.87;84.53
79198;BME280;68628;48.714;9.472;2023-05-10T01:06:52;97435.66;;;13.85;83.00
79198;BME280;68628;48.714;9.472;2023-05-10T01:09:20;97441.84;;;13.72;83.75
79198;BME280;68628;48.714;9.472;2023-05-10T01:11:47;97448.25;;;13.57;83.77
79198;BME280;68628;48.714;9.472;2023-05-10T01:14:15;97440.91;;;13.59;84.54
79198;BME280;68628;48.714;9.472;2023-05-10T01:16:46;97447.56;;;13.69;83.72
79198;BME280;68628;48.714;9.472;2023-05-10T01:19:22;97451.09;;;13.56;83.65
79198;BME280;68628;48.714;9.472;2023-05-10T01:31:33;97460.53;;;13.45;83.94
79198;BME280;68628;48.714;9.472;2023-05-10T01:34:35;97464.19;;;13.44;84.49
79198;BME280;68628;48.714;9.472;2023-05-10T01:37:13;97471.16;;;13.38;84.34
79198;BME280;68628;48.714;9.472;2023-05-10T01:39:56;97472.56;;;13.41;84.53
79198;BME280;68628;48.714;9.472;2023-05-10T01:43:16;97469.31;;;13.39;84.32
79198;BME280;68628;48.714;9.472;2023-05-10T01:45:47;97476.47;;;13.38;83.92
79198;BME280;68628;48.714;9.472;2023-05-10T01:48:23;97476.88;;;13.28;84.56
79198;BME280;68628;48.714;9.472;2023-05-10T01:50:53;97476.88;;;13.28;83.51
79198;BME280;68628;48.714;9.472;2023-05-10T01:53:24;97485.41;;;13.30;83.16
79198;BME280;68628;48.714;9.472;2023-05-10T01:55:53;97488.72;;;13.19;84.33
79198;BME280;68628;48.714;9.472;2023-05-10T01:58:27;97487.09;;;13.18;84.50
79198;BME280;68628;48.714;9.472;2023-05-10T02:00:58;97486.13;;;13.12;84.13
79198;BME280;68628;48.714;9.472;2023-05-10T02:03:28;97492.94;;;13.27;83.51
79198;BME280;68628;48.714;9.472;2023-05-10T02:05:57;97497.69;;;13.18;83.90
79198;BME280;68628;48.714;9.472;2023-05-10T02:08:25;97498.88;;;13.22;84.88
79198;BME280;68628;48.714;9.472;2023-05-10T02:10:54;97503.16;;;13.23;83.50
79198;BME280;68628;48.714;9.472;2023-05-10T02:13:23;97499.09;;;13.21;83.29
79198;BME280;68628;48.714;9.472;2023-05-10T02:15:53;97498.31;;;13.07;84.22
79198;BME280;68628;48.714;9.472;2023-05-10T02:18:23;97505.47;;;12.99;84.87
79198;BME280;68628;48.714;9.472;2023-05-10T02:20:53;97502.19;;;13.04;83.88
79198;BME280;68628;48.714;9.472;2023-05-10T02:23:21;97508.91;;;13.00;83.74
79198;BME280;68628;48.714;9.472;2023-05-10T02:25:50;97510.94;;;13.05;83.59
79198;BME280;68628;48.714;9.472;2023-05-10T02:28:19;97518.25;;;13.09;83.57
79198;BME280;68628;48.714;9.472;2023-05-10T02:30:48;97516.25;;;13.05;84.10
79198;BME280;68628;48.714;9.472;2023-05-10T02:33:14;97529.25;;;13.06;84.41
79198;BME280;68628;48.714;9.472;2023-05-10T02:35:41;97516.22;;;13.11;83.42
79198;BME280;68628;48.714;9.472;2023-05-10T02:38:09;97526.00;;;13.04;83.87
79198;BME280;68628;48.714;9.472;2023-05-10T02:40:38;97524.78;;;13.00;84.70
79198;BME280;68628;48.714;9.472;2023-05-10T02:43:09;97527.84;;;13.04;84.76
79198;BME280;68628;48.714;9.472;2023-05-10T02:45:40;97529.47;;;13.05;84.94
79198;BME280;68628;48.714;9.472;2023-05-10T02:48:08;97531.69;;;13.08;84.19
79198;BME280;68628;48.714;9.472;2023-05-10T02:50:36;97526.38;;;13.14;83.54
79198;BME280;68628;48.714;9.472;2023-05-10T02:53:15;97525.41;;;13.02;84.40
79198;BME280;68628;48.714;9.472;2023-05-10T02:55:50;97524.56;;;13.02;84.14
79198;BME280;68628;48.714;9.472;2023-05-10T02:58:17;97525.19;;;13.04;84.91
79198;BME280;68628;48.714;9.472;2023-05-10T03:00:46;97527.22;;;13.02;84.75
79198;BME280;68628;48.714;9.472;2023-05-10T03:03:12;97519.50;;;13.00;84.61
79198;BME280;68628;48.714;9.472;2023-05-10T03:05:37;97523.38;;;12.97;84.08
79198;BME280;68628;48.714;9.472;2023-05-10T03:08:03;97528.28;;;12.94;84.03
79198;BME280;68628;48.714;9.472;2023-05-10T03:10:32;97527.63;;;12.98;84.25
79198;BME280;68628;48.714;9.472;2023-05-10T03:13:07;97527.66;;;12.92;85.31
79198;BME280;68628;48.714;9.472;2023-05-10T03:15:52;97532.16;;;12.91;84.90
79198;BME280;68628;48.714;9.472;2023-05-10T03:18:56;97531.28;;;12.97;84.90
79198;BME280;68628;48.714;9.472;2023-05-10T03:21:42;97541.09;;;12.90;85.64
79198;BME280;68628;48.714;9.472;2023-05-10T03:24:13;97542.50;;;12.93;84.82
79198;BME280;68628;48.714;9.472;2023-05-10T03:26:43;97547.16;;;13.04;84.61
79198;BME280;68628;48.714;9.472;2023-05-10T03:29:13;97532.94;;;12.98;84.37
79198;BME280;68628;48.714;9.472;2023-05-10T03:31:40;97545.16;;;12.93;84.63
79198;BME280;68628;48.714;9.472;2023-05-10T03:34:06;97544.53;;;12.91;84.66
79198;BME280;68628;48.714;9.472;2023-05-10T03:36:32;97544.53;;;12.91;85.80
79198;BME280;68628;48.714;9.472;2023-05-10T03:38:58;97545.16;;;12.86;85.02
79198;BME280;68628;48.714;9.472;2023-05-10T03:41:23;97548.41;;;12.88;84.40
79198;BME280;68628;48.714;9.472;2023-05-10T03:43:51;97542.72;;;12.78;85.24
79198;BME280;68628;48.714;9.472;2023-05-10T03:46:17;97554.94;;;12.79;84.65
79198;BME280;68628;48.714;9.472;2023-05-10T03:48:42;97556.97;;;12.83;85.08
79198;BME280;68628;48.714;9.472;2023-05-10T03:51:08;97550.06;;;12.76;84.85
79198;BME280;68628;48.714;9.472;2023-05-10T03:53:33;97549.44;;;12.74;84.13
79198;BME280;68628;48.714;9.472;2023-05-10T03:55:59;97553.31;;;12.64;85.76
79198;BME280;68628;48.714;9.472;2023-05-10T03:58:25;97555.97;;;12.58;85.58
79198;BME280;68628;48.714;9.472;2023-05-10T04:00:51;97552.72;;;12.62;85.20
79198;BME280;68628;48.714;9.472;2023-05-10T04:03:17;97556.78;;;12.58;85.72
79198;BME280;68628;48.714;9.472;2023-05-10T04:05:43;97558.78;;;12.70;85.89
79198;BME280;68628;48.714;9.472;2023-05-10T04:08:08;97557.38;;;12.67;85.53
79198;BME280;68628;48.714;9.472;2023-05-10T04:10:34;97563.69;;;12.73;86.15
79198;BME280;68628;48.714;9.472;2023-05-10T04:13:00;97554.94;;;12.72;85.91
79198;BME280;68628;48.714;9.472;2023-05-10T04:15:25;97560.22;;;12.72;86.14
79198;BME280;68628;48.714;9.472;2023-05-10T04:17:51;97564.69;;;12.78;85.84
79198;BME280;68628;48.714;9.472;2023-05-10T04:20:17;97563.66;;;12.93;85.45
79198;BME280;68628;48.714;9.472;2023-05-10T04:22:42;97569.78;;;12.80;86.06
79198;BME280;68628;48.714;9.472;2023-05-10T04:25:08;97576.06;;;12.86;85.71
79198;BME280;68628;48.714;9.472;2023-05-10T04:27:35;97567.09;;;12.93;85.70
79198;BME280;68628;48.714;9.472;2023-05-10T04:30:01;97558.16;;;12.94;84.98
79198;BME280;68628;48.714;9.472;2023-05-10T04:32:27;97565.47;;;12.92;85.79
79198;BME280;68628;48.714;9.472;2023-05-10T04:34:53;97573.22;;;12.94;86.36
79198;BME280;68628;48.714;9.472;2023-05-10T04:37:19;97568.31;;;13.04;85.73
79198;BME280;68628;48.714;9.472;2023-05-10T04:39:46;97576.22;;;13.17;85.55
79198;BME280;68628;48.714;9.472;2023-05-10T04:42:12;97570.38;;;13.02;86.23
79198;BME280;68628;48.714;9.472;2023-05-10T04:44:40;97577.06;;;13.05;87.01
79198;BME280;68628;48.714;9.472;2023-05-10T04:47:06;97576.44;;;13.03;85.88
79198;BME280;68628;48.714;9.472;2023-05-10T04:49:32;97581.16;;;12.94;85.42
79198;BME280;68628;48.714;9.472;2023-05-10T04:51:57;97581.34;;;12.99;86.75
79198;BME280;68628;48.714;9.472;2023-05-10T04:54:23;97585.22;;;12.76;86.70
79198;BME280;68628;48.714;9.472;2023-05-10T04:56:49;97585.00;;;12.78;86.54
79198;BME280;68628;48.714;9.472;2023-05-10T04:59:14;97591.34;;;12.90;86.85
79198;BME280;68628;48.714;9.472;2023-05-10T05:01:40;97594.56;;;12.92;86.82
79198;BME280;68628;48.714;9.472;2023-05-10T05:04:05;97594.97;;;13.03;87.11
79198;BME280;68628;48.714;9.472;2023-05-10T05:06:32;97590.84;;;13.20;86.75
79198;BME280;68628;48.714;9.472;2023-05-10T05:08:57;97591.66;;;13.27;85.96
79198;BME280;68628;48.714;9.472;2023-05-10T05:11:23;97594.28;;;13.34;84.42
79198;BME280;68628;48.714;9.472;2023-05-10T05:13:48;97593.06;;;13.43;84.43
79198;BME280;68628;48.714;9.472;2023-05-10T05:16:14;97595.56;;;13.18;83.43
79198;BME280;68628;48.714;9.472;2023-05-10T05:18:40;97606.78;;;12.93;83.51
79198;BME280;68628;48.714;9.472;2023-05-10T05:21:19;97609.00;;;12.96;85.32
79198;BME280;68628;48.714;9.472;2023-05-10T05:23:45;97603.72;;;13.10;84.55
79198;BME280;68628;48.714;9.472;2023-05-10T05:26:11;97597.75;;;13.34;84.08
79198;BME280;68628;48.714;9.472;2023-05-10T05:28:37;97603.22;;;13.53;82.63
79198;BME280;68628;48.714;9.472;2023-05-10T05:31:07;97600.22;;;13.43;82.96
79198;BME280;68628;48.714;9.472;2023-05-10T05:33:33;97602.78;;;13.63;82.33
79198;BME280;68628;48.714;9.472;2023-05-10T05:36:04;97609.66;;;13.77;82.03
79198;BME280;68628;48.714;9.472;2023-05-10T05:38:30;97608.63;;;13.78;83.39
79198;BME280;68628;48.714;9.472;2023-05-10T05:40:56;97612.53;;;13.62;82.25
79198;BME280;68628;48.714;9.472;2023-05-10T05:43:23;97611.25;;;13.78;81.08
79198;BME280;68628;48.714;9.472;2023-05-10T05:45:49;97615.53;;;13.79;79.52
79198;BME280;68628;48.714;9.472;2023-05-10T05:48:14;97614.38;;;13.69;82.96
79198;BME280;68628;48.714;9.472;2023-05-10T05:50:40;97611.25;;;13.78;82.82
79198;BME280;68628;48.714;9.472;2023-05-10T05:53:06;97612.88;;;13.86;81.22
79198;BME280;68628;48.714;9.472;2023-05-10T05:55:31;97620.59;;;13.88;81.55
79198;BME280;68628;48.714;9.472;2023-05-10T05:57:57;97625.31;;;13.86;82.61
79198;BME280;68628;48.714;9.472;2023-05-10T06:00:23;97627.88;;;13.99;81.25
79198;BME280;68628;48.714;9.472;2023-05-10T06:02:49;97630.75;;;13.97;81.72
79198;BME280;68628;48.714;9.472;2023-05-10T06:05:14;97622.94;;;14.09;81.34
79198;BME280;68628;48.714;9.472;2023-05-10T06:07:40;97634.78;;;14.07;80.67
79198;BME280;68628;48.714;9.472;2023-05-10T06:10:08;97638.47;;;13.99;81.57
79198;BME280;68628;48.714;9.472;2023-05-10T06:12:34;97637.25;;;14.02;81.58
79198;BME280;68628;48.714;9.472;2023-05-10T06:15:00;97639.63;;;13.71;81.44
79198;BME280;68628;48.714;9.472;2023-05-10T06:17:25;97632.31;;;13.60;83.92
79198;BME280;68628;48.714;9.472;2023-05-10T06:19:51;97637.75;;;13.78;83.28
79198;BME280;68628;48.714;9.472;2023-05-10T06:22:17;97641.47;;;13.71;82.79
79198;BME280;68628;48.714;9.472;2023-05-10T06:24:43;97643.31;;;13.63;83.70
79198;BME280;68628;48.714;9.472;2023-05-10T06:27:08;97648.72;;;13.89;82.58
79198;BME280;68628;48.714;9.472;2023-05-10T06:29:34;97643.47;;;13.75;82.86
79198;BME280;68628;48.714;9.472;2023-05-10T06:32:00;97646.53;;;13.79;83.60
79198;BME280;68628;48.714;9.472;2023-05-10T06:34:25;97642.56;;;13.95;82.75
79198;BME280;68628;48.714;9.472;2023-05-10T06:36:51;97646.72;;;13.77;83.13
79198;BME280;68628;48.714;9.472;2023-05-10T06:39:17;97652.59;;;13.86;82.74
79198;BME280;68628;48.714;9.472;2023-05-10T06:41:42;97651.94;;;13.97;83.00
79198;BME280;68628;48.714;9.472;2023-05-10T06:44:08;97656.19;;;14.05;82.39
79198;BME280;68628;48.714;9.472;2023-05-10T06:46:34;97660.63;;;14.11;81.34
79198;BME280;68628;48.714;9.472;2023-05-10T06:48:59;97658.63;;;14.07;82.90
79198;BME280;68628;48.714;9.472;2023-05-10T06:51:25;97655.59;;;13.96;81.63
79198;BME280;68628;48.714;9.472;2023-05-10T06:53:51;97657.25;;;13.97;81.93
79198;BME280;68628;48.714;9.472;2023-05-10T06:56:17;97663.25;;;14.18;81.80
79198;BME280;68628;48.714;9.472;2023-05-10T06:58:42;97661.34;;;13.93;81.01
79198;BME280;68628;48.714;9.472;2023-05-10T07:01:08;97671.94;;;13.93;82.35
79198;BME280;68628;48.714;9.472;2023-05-10T07:03:34;97660.44;;;14.06;80.76
79198;BME280;68628;48.714;9.472;2023-05-10T07:06:04;97663.22;;;13.79;81.85
79198;BME280;68628;48.714;9.472;2023-05-10T07:08:30;97653.19;;;13.95;82.05
79198;BME280;68628;48.714;9.472;2023-05-10T07:11:04;97664.41;;;13.83;82.88
79198;BME280;68628;48.714;9.472;2023-05-10T07:13:31;97672.34;;;13.83;82.26
79198;BME280;68628;48.714;9.472;2023-05-10T07:15:58;97660.03;;;13.50;82.73
79198;BME280;68628;48.714;9.472;2023-05-10T07:18:25;97669.19;;;13.48;83.93
79198;BME280;68628;48.714;9.472;2023-05-10T07:20:51;97670.41;;;13.65;82.27
79198;BME280;68628;48.714;9.472;2023-05-10T07:23:17;97662.81;;;13.76;82.21
79198;BME280;68628;48.714;9.472;2023-05-10T07:25:46;97670.31;;;13.86;82.93
79198;BME280;68628;48.714;9.472;2023-05-10T07:28:14;97672.81;;;13.74;83.44
79198;BME280;68628;48.714;9.472;2023-05-10T07:30:40;97678.16;;;13.54;82.09
79198;BME280;68628;48.714;9.472;2023-05-10T07:33:06;97671.63;;;13.56;83.80
79198;BME280;68628;48.714;9.472;2023-05-10T07:35:34;97677.53;;;13.52;83.55
79198;BME280;68628;48.714;9.472;2023-05-10T07:37:59;97680.59;;;13.55;83.26
79198;BME280;68628;48.714;9.472;2023-05-10T07:40:25;97690.38;;;13.61;83.15
79198;BME280;68628;48.714;9.472;2023-05-10T07:42:51;97681.41;;;13.56;84.50
79198;BME280;68628;48.714;9.472;2023-05-10T07:45:17;97686.66;;;13.69;83.99
79198;BME280;68628;48.714;9.472;2023-05-10T07:47:43;97683.81;;;13.77;82.73
79198;BME280;68628;48.714;9.472;2023-05-10T07:50:08;97679.78;;;13.48;84.10
79198;BME280;68628;48.714;9.472;2023-05-10T07:52:34;97688.56;;;13.48;82.63
79198;BME280;68628;48.714;9.472;2023-05-10T07:55:00;97684.78;;;13.90;81.75
79198;BME280;68628;48.714;9.472;2023-05-10T07:57:25;97681.63;;;14.13;80.90
79198;BME280;68628;48.714;9.472;2023-05-10T07:59:51;97685.16;;;14.39;81.65
79198;BME280;68628;48.714;9.472;2023-05-10T08:02:16;97687.06;;;14.25;79.29
79198;BME280;68628;48.714;9.472;2023-05-10T08:04:42;97681.09;;;14.36;78.68
79198;BME280;68628;48.714;9.472;2023-05-10T08:07:07;97689.19;;;14.48;80.07
79198;BME280;68628;48.714;9.472;2023-05-10T08:09:33;97683.75;;;14.75;80.83
79198;BME280;68628;48.714;9.472;2023-05-10T08:11:59;97681.50;;;15.04;77.84
79198;BME280;68628;48.714;9.472;2023-05-10T08:14:28;97686.47;;;15.19;78.99
79198;BME280;68628;48.714;9.472;2023-05-10T08:16:54;97687.88;;;15.21;77.32
79198;BME280;68628;48.714;9.472;2023-05-10T08:19:20;97689.09;;;15.44;77.45
79198;BME280;68628;48.714;9.472;2023-05-10T08:21:47;97687.28;;;15.19;76.47
79198;BME280;68628;48.714;9.472;2023-05-10T08:24:13;97692.09;;;15.29;77.28
79198;BME280;68628;48.714;9.472;2023-05-10T08:26:38;97678.84;;;15.66;76.45
79198;BME280;68628;48.714;9.472;2023-05-10T08:29:04;97690.00;;;15.56;75.21
79198;BME280;68628;48.714;9.472;2023-05-10T08:31:30;97690.41;;;14.84;76.90
79198;BME280;68628;48.714;9.472;2023-05-10T08:33:55;97681.09;;;14.36;76.74
79198;BME280;68628;48.714;9.472;2023-05-10T08:36:21;97681.72;;;14.38;77.18
79198;BME280;68628;48.714;9.472;2023-05-10T08:38:53;97684.63;;;14.23;77.35
79198;BME280;68628;48.714;9.472;2023-05-10T08:41:23;97688.72;;;14.19;78.28
79198;BME280;68628;48.714;9.472;2023-05-10T08:43:52;97689.09;;;14.29;76.57
79198;BME280;68628;48.714;9.472;2023-05-10T08:46:20;97686.09;;;14.12;75.63
79198;BME280;68628;48.714;9.472;2023-05-10T08:48:49;97686.88;;;14.26;77.43
79198;BME280;68628;48.714;9.472;2023-05-10T08:51:22;97685.66;;;14.61;77.20
79198;BME280;68628;48.714;9.472;2023-05-10T08:53:52;97689.16;;;14.87;76.01
79198;BME280;68628;48.714;9.472;2023-05-10T08:56:17;97691.72;;;15.00;77.66
79198;BME280;68628;48.714;9.472;2023-05-10T08:58:43;97693.34;;;15.01;75.39
79198;BME280;68628;48.714;9.472;2023-05-10T09:01:10;97696.81;;;15.02;75.07
79198;BME280;68628;48.714;9.472;2023-05-10T09:03:38;97699.75;;;15.62;75.78
79198;BME280;68628;48.714;9.472;2023-05-10T09:06:04;97700.97;;;16.04;72.85
79198;BME280;68628;48.714;9.472;2023-05-10T09:08:30;97697.38;;;16.28;72.67
79198;BME280;68628;48.714;9.472;2023-05-10T09:10:56;97699.63;;;16.74;69.81
79198;BME280;68628;48.714;9.472;2023-05-10T09:13:23;97704.69;;;16.33;69.69
79198;BME280;68628;48.714;9.472;2023-05-10T09:15:51;97703.81;;;16.21;73.31
79198;BME280;68628;48.714;9.472;2023-05-10T09:18:18;97711.75;;;15.21;72.47
79198;BME280;68628;48.714;9.472;2023-05-10T09:20:43;97704.78;;;15.02;72.01
79198;BME280;68628;48.714;9.472;2023-05-10T09:23:10;97708.56;;;15.12;70.76
79198;BME280;68628;48.714;9.472;2023-05-10T09:25:35;97704.84;;;14.88;72.62
79198;BME280;68628;48.714;9.472;2023-05-10T09:28:06;97718.50;;;14.92;74.32
79198;BME280;68628;48.714;9.472;2023-05-10T09:30:34;97704.97;;;14.75;72.20
79198;BME280;68628;48.714;9.472;2023-05-10T09:33:01;97702.06;;;14.83;71.91
79198;BME280;68628;48.714;9.472;2023-05-10T09:35:29;97711.31;;;14.74;72.72
79198;BME280;68628;48.714;9.472;2023-05-10T09:37:59;97719.88;;;14.69;73.18
79198;BME280;68628;48.714;9.472;2023-05-10T09:40:29;97724.56;;;14.74;72.05
79198;BME280;68628;48.714;9.472;2023-05-10T09:42:58;97714.88;;;14.86;71.70
79198;BME280;68628;48.714;9.472;2023-05-10T09:45:29;97717.25;;;14.62;72.62
79198;BME280;68628;48.714;9.472;2023-05-10T09:47:57;97719.72;;;14.64;73.15
79198;BME280;68628;48.714;9.472;2023-05-10T09:50:25;97718.44;;;14.73;72.64
79198;BME280;68628;48.714;9.472;2023-05-10T09:52:53;97723.56;;;14.68;72.05
79198;BME280;68628;48.714;9.472;2023-05-10T09:55:22;97721.31;;;14.72;76.31
79198;BME280;68628;48.714;9.472;2023-05-10T09:57:59;97725.84;;;14.96;77.43
79198;BME280;68628;48.714;9.472;2023-05-10T10:00:26;97729.97;;;15.18;76.70
79198;BME280;68628;48.714;9.472;2023-05-10T10:02:56;97727.50;;;15.16;76.98
79198;BME280;68628;48.714;9.472;2023-05-10T10:05:30;97722.28;;;14.77;77.11
79198;BME280;68628;48.714;9.472;2023-05-10T10:07:57;97719.41;;;15.11;77.43
79198;BME280;68628;48.714;9.472;2023-05-10T10:10:24;97731.09;;;15.28;76.15
79198;BME280;68628;48.714;9.472;2023-05-10T10:12:51;97732.97;;;15.21;76.42
79198;BME280;68628;48.714;9.472;2023-05-10T10:15:17;97739.19;;;15.15;77.37
79198;BME280;68628;48.714;9.472;2023-05-10T10:17:45;97735.22;;;14.99;77.48
79198;BME280;68628;48.714;9.472;2023-05-10T10:20:12;97731.22;;;15.15;75.09
79198;BME280;68628;48.714;9.472;2023-05-10T10:22:38;97730.44;;;15.08;75.48
79198;BME280;68628;48.714;9.472;2023-05-10T10:25:04;97732.88;;;15.09;76.18
79198;BME280;68628;48.714;9.472;2023-05-10T10:27:45;97736.13;;;15.11;76.76
79198;BME280;68628;48.714;9.472;2023-05-10T10:30:41;97726.84;;;15.46;75.72
79198;BME280;68628;48.714;9.472;2023-05-10T10:34:04;97723.88;;;15.79;75.46
79198;BME280;68628;48.714;9.472;2023-05-10T10:36:26;97725.53;;;16.18;74.08
79198;BME280;68628;48.714;9.472;2023-05-10T10:38:57;97722.47;;;15.77;73.66
79198;BME280;68628;48.714;9.472;2023-05-10T10:41:32;97722.59;;;16.38;73.43
79198;BME280;68628;48.714;9.472;2023-05-10T10:46:59;97719.47;;;16.90;71.11
79198;BME280;68628;48.714;9.472;2023-05-10T10:49:26;97721.16;;;16.84;71.94
79198;BME280;68628;48.714;9.472;2023-05-10T10:57:56;97718.59;;;17.20;68.46
79198;BME280;68628;48.714;9.472;2023-05-10T11:00:38;97714.63;;;16.98;66.02
79198;BME280;68628;48.714;9.472;2023-05-10T11:03:10;97717.00;;;17.30;68.89
79198;BME280;68628;48.714;9.472;2023-05-10T11:05:50;97719.06;;;17.52;68.46
79198;BME280;68628;48.714;9.472;2023-05-10T11:08:28;97721.81;;;18.17;66.17
79198;BME280;68628;48.714;9.472;2023-05-10T11:13:44;97717.69;;;17.73;67.00
79198;BME280;68628;48.714;9.472;2023-05-10T11:21:30;97719.84;;;17.05;66.55
79198;BME280;68628;48.714;9.472;2023-05-10T11:23:58;97729.97;;;16.85;68.77
79198;BME280;68628;48.714;9.472;2023-05-10T11:26:30;97725.22;;;16.56;70.19
79198;BME280;68628;48.714;9.472;2023-05-10T11:28:57;97721.47;;;16.76;71.47
79198;BME280;68628;48.714;9.472;2023-05-10T11:31:26;97729.50;;;16.57;71.94
79198;BME280;68628;48.714;9.472;2023-05-10T11:33:53;97721.22;;;16.65;72.29
79198;BME280;68628;48.714;9.472;2023-05-10T11:36:24;97717.84;;;16.28;71.30
79198;BME280;68628;48.714;9.472;2023-05-10T11:38:52;97723.69;;;15.99;72.00
79198;BME280;68628;48.714;9.472;2023-05-10T11:41:20;97726.50;;;15.61;74.61
79198;BME280;68628;48.714;9.472;2023-05-10T11:43:49;97737.63;;;15.51;73.50
79198;BME280;68628;48.714;9.472;2023-05-10T11:46:19;97739.88;;;15.29;74.48
79198;BME280;68628;48.714;9.472;2023-05-10T11:48:49;97751.09;;;14.74;75.15
79198;BME280;68628;48.714;9.472;2023-05-10T11:51:23;97766.34;;;14.33;76.53
79198;BME280;68628;48.714;9.472;2023-05-10T11:53:53;97772.50;;;14.20;74.16
79198;BME280;68628;48.714;9.472;2023-05-10T11:56:21;97772.44;;;14.33;74.96
79198;BME280;68628;48.714;9.472;2023-05-10T11:58:56;97781.59;;;14.38;74.44
79198;BME280;68628;48.714;9.472;2023-05-10T12:01:24;97789.66;;;14.11;75.14
79198;BME280;68628;48.714;9.472;2023-05-10T12:03:54;97788.50;;;13.40;73.66
79198;BME280;68628;48.714;9.472;2023-05-10T12:06:27;97794.59;;;13.33;73.91
79198;BME280;68628;48.714;9.472;2023-05-10T12:08:56;97799.31;;;13.38;76.16
79198;BME280;68628;48.714;9.472;2023-05-10T12:11:25;97812.03;;;13.01;72.86
79198;BME280;68628;48.714;9.472;2023-05-10T12:13:55;97810.34;;;12.73;75.00
79198;BME280;68628;48.714;9.472;2023-05-10T12:16:29;97822.69;;;12.59;76.21
79198;BME280;68628;48.714;9.472;2023-05-10T12:18:59;97814.41;;;12.69;78.75
79198;BME280;68628;48.714;9.472;2023-05-10T12:21:28;97823.22;;;12.35;75.20
79198;BME280;68628;48.714;9.472;2023-05-10T12:23:59;97828.22;;;12.71;77.52
79198;BME280;68628;48.714;9.472;2023-05-10T12:26:27;97824.56;;;12.65;77.48
79198;BME280;68628;48.714;9.472;2023-05-10T12:28:54;97826.44;;;12.85;78.91
79198;BME280;68628;48.714;9.472;2023-05-10T12:31:20;97830.34;;;13.03;77.40
79198;BME280;68628;48.714;9.472;2023-05-10T12:33:46;97831.38;;;13.15;78.59
79198;BME280;68628;48.714;9.472;2023-05-10T12:36:15;97829.16;;;13.12;74.67
79198;BME280;68628;48.714;9.472;2023-05-10T12:38:44;97832.00;;;13.04;78.13
79198;BME280;68628;48.714;9.472;2023-05-10T12:41:16;97834.09;;;13.35;78.25
79198;BME280;68628;48.714;9.472;2023-05-10T12:43:42;97833.28;;;13.55;76.47
79198;BME280;68628;48.714;9.472;2023-05-10T12:46:12;97831.88;;;13.92;76.64
79198;BME280;68628;48.714;9.472;2023-05-10T12:48:40;97829.63;;;14.03;73.84
79198;BME280;68628;48.714;9.472;2023-05-10T12:51:09;97830.44;;;13.96;73.64
79198;BME280;68628;48.714;9.472;2023-05-10T12:53:37;97822.72;;;13.61;72.42
79198;BME280;68628;48.714;9.472;2023-05-10T12:56:06;97826.97;;;13.76;73.91
79198;BME280;68628;48.714;9.472;2023-05-10T12:58:32;97831.41;;;14.09;71.99
79198;BME280;68628;48.714;9.472;2023-05-10T13:00:58;97821.84;;;14.14;73.19
79198;BME280;68628;48.714;9.472;2023-05-10T13:03:25;97815.78;;;14.59;70.00
79198;BME280;68628;48.714;9.472;2023-05-10T13:05:52;97817.03;;;14.63;72.16
79198;BME280;68628;48.714;9.472;2023-05-10T13:08:17;97818.47;;;14.46;71.13
79198;BME280;68628;48.714;9.472;2023-05-10T13:10:43;97818.91;;;14.36;71.25
79198;BME280;68628;48.714;9.472;2023-05-10T13:13:09;97820.25;;;14.59;71.88
79198;BME280;68628;48.714;9.472;2023-05-10T13:15:35;97815.16;;;15.35;70.71
79198;BME280;68628;48.714;9.472;2023-05-10T13:18:00;97809.34;;;15.51;70.79
79198;BME280;68628;48.714;9.472;2023-05-10T13:20:26;97810.03;;;15.40;71.45
79198;BME280;68628;48.714;9.472;2023-05-10T13:22:52;97812.09;;;15.63;69.48
79198;BME280;68628;48.714;9.472;2023-05-10T13:25:19;97807.25;;;14.96;71.63
79198;BME280;68628;48.714;9.472;2023-05-10T13:27:45;97813.66;;;15.20;71.82
79198;BME280;68628;48.714;9.472;2023-05-10T13:30:11;97811.00;;;14.81;73.31
79198;BME280;68628;48.714;9.472;2023-05-10T13:32:37;97802.50;;;15.37;73.92